createdAt,value
2019-02-16T00:01:19.231Z,102446.05
2019-02-16T00:03:51.026Z,102444.00
2019-02-16T00:06:23.604Z,102441.65
2019-02-16T00:08:55.763Z,102438.03
2019-02-16T00:11:27.369Z,102432.27
2019-02-16T00:13:59.336Z,102434.59
2019-02-16T00:16:31.271Z,102433.30
2019-02-16T00:19:03.333Z,102427.45
2019-02-16T00:21:35.431Z,102427.86
2019-02-16T00:24:06.929Z,102426.11
2019-02-16T00:26:38.691Z,102418.99
2019-02-16T00:29:10.681Z,102425.63
2019-02-16T00:31:42.185Z,102422.58
2019-02-16T00:34:14.056Z,102416.23
2019-02-16T00:36:47.012Z,102419.41
2019-02-16T00:39:18.385Z,102419.75
2019-02-16T00:41:51.515Z,102401.56
2019-02-16T00:44:23.766Z,102401.54
2019-02-16T00:46:55.066Z,102405.41
2019-02-16T00:49:27.436Z,102396.12
2019-02-16T00:51:59.161Z,102394.35
2019-02-16T00:54:30.468Z,102396.92
2019-02-16T00:57:03.278Z,102391.55
2019-02-16T00:59:35.480Z,102387.59
2019-02-16T01:02:07.170Z,102383.02
2019-02-16T01:04:39.205Z,102373.28
2019-02-16T01:07:10.531Z,102377.22
2019-02-16T01:09:41.939Z,102378.50
2019-02-16T01:12:15.120Z,102367.91
2019-02-16T01:14:47.142Z,102356.44
2019-02-16T01:17:19.371Z,102350.19
2019-02-16T01:19:51.972Z,102356.44
2019-02-16T01:22:23.794Z,102350.66
2019-02-16T01:24:55.018Z,102338.70
2019-02-16T01:27:27.126Z,102340.06
2019-02-16T01:29:58.806Z,102336.91
2019-02-16T01:32:30.421Z,102335.05
2019-02-16T01:35:01.618Z,102328.07
2019-02-16T01:37:33.898Z,102327.15
2019-02-16T01:40:06.624Z,102319.20
2019-02-16T01:42:38.305Z,102316.51
2019-02-16T01:45:11.311Z,102317.00
2019-02-16T01:47:42.556Z,102315.31
2019-02-16T01:50:14.186Z,102306.47
2019-02-16T01:52:45.549Z,102312.25
2019-02-16T01:55:18.920Z,102305.28
2019-02-16T01:57:50.298Z,102298.11
2019-02-16T02:00:21.968Z,102306.64
2019-02-16T02:02:54.490Z,102294.28
2019-02-16T02:05:26.204Z,102299.57
2019-02-16T02:07:58.054Z,102293.43
2019-02-16T02:10:29.800Z,102302.00
2019-02-16T02:13:01.549Z,102290.38
2019-02-16T02:15:32.892Z,102286.91
2019-02-16T02:18:04.702Z,102283.91
2019-02-16T02:20:37.009Z,102279.42
2019-02-16T02:23:08.841Z,102275.54
2019-02-16T02:25:40.565Z,102267.50
2019-02-16T02:28:12.165Z,102269.23
2019-02-16T02:30:44.112Z,102267.13
2019-02-16T02:33:17.234Z,102263.19
2019-02-16T02:35:48.536Z,102264.57
2019-02-16T02:38:19.751Z,102264.92
2019-02-16T02:40:51.439Z,102259.16
2019-02-16T02:43:23.429Z,102253.96
2019-02-16T02:45:55.560Z,102253.98
2019-02-16T02:48:27.698Z,102249.45
2019-02-16T02:50:58.957Z,102255.39
2019-02-16T02:53:31.699Z,102251.08
2019-02-16T02:56:04.439Z,102242.57
2019-02-16T02:58:35.725Z,102232.70
2019-02-16T03:01:07.866Z,102236.77
2019-02-16T03:03:42.482Z,102229.64
2019-02-16T03:06:14.696Z,102227.81
2019-02-16T03:08:45.949Z,102221.25
2019-02-16T03:11:17.702Z,102224.75
2019-02-16T03:13:50.169Z,102219.06
2019-02-16T03:16:21.411Z,102215.90
2019-02-16T03:18:53.482Z,102224.88
2019-02-16T03:21:25.616Z,102216.03
2019-02-16T03:23:57.345Z,102214.97
2019-02-16T03:26:47.481Z,102205.24
2019-02-16T03:29:34.038Z,102204.48
2019-02-16T03:32:47.495Z,102202.34
2019-02-16T03:35:51.223Z,102201.40
2019-02-16T03:39:09.190Z,102207.22
2019-02-16T03:41:41.224Z,102208.98
2019-02-16T03:44:12.506Z,102198.86
2019-02-16T03:46:44.807Z,102214.82
2019-02-16T03:49:16.576Z,102211.73
2019-02-16T03:51:47.811Z,102205.17
2019-02-16T03:57:10.433Z,102204.31
2019-02-16T03:59:42.268Z,102199.05
2019-02-16T04:02:15.268Z,102199.42
2019-02-16T04:04:47.301Z,102187.42
2019-02-16T04:07:19.437Z,102188.72
2019-02-16T04:09:51.394Z,102191.00
2019-02-16T04:12:23.275Z,102182.96
2019-02-16T04:14:55.168Z,102185.23
2019-02-16T04:17:26.872Z,102188.86
2019-02-16T04:19:58.575Z,102185.32
2019-02-16T04:22:30.628Z,102185.38
2019-02-16T04:25:02.519Z,102184.46
2019-02-16T04:30:23.981Z,102180.95
2019-02-16T04:32:55.196Z,102175.71
2019-02-16T04:35:27.690Z,102176.69
2019-02-16T04:37:59.759Z,102177.55
2019-02-16T04:40:31.583Z,102178.87
2019-02-16T04:43:02.928Z,102175.41
2019-02-16T04:45:34.622Z,102172.25
2019-02-16T04:48:05.941Z,102170.19
2019-02-16T04:50:37.543Z,102158.19
2019-02-16T04:53:09.366Z,102167.09
2019-02-16T04:55:41.167Z,102171.17
2019-02-16T04:58:12.751Z,102168.00
2019-02-16T05:00:44.805Z,102168.87
2019-02-16T05:03:16.540Z,102169.77
2019-02-16T05:05:47.736Z,102168.57
2019-02-16T05:08:20.326Z,102156.53
2019-02-16T05:10:52.481Z,102152.98
2019-02-16T05:13:24.250Z,102153.97
2019-02-16T05:15:55.582Z,102145.52
2019-02-16T05:18:27.478Z,102143.08
2019-02-16T05:20:59.212Z,102132.58
2019-02-16T05:23:31.864Z,102132.64
2019-02-16T05:26:27.157Z,102129.09
2019-02-16T05:29:03.659Z,102120.69
2019-02-16T05:31:35.817Z,102125.12
2019-02-16T05:34:07.414Z,102125.14
2019-02-16T05:36:40.977Z,102130.54
2019-02-16T05:39:12.540Z,102131.37
2019-02-16T05:41:44.076Z,102134.03
2019-02-16T05:44:16.061Z,102133.12
2019-02-16T05:46:47.420Z,102136.62
2019-02-16T05:49:19.183Z,102143.84
2019-02-16T05:51:50.911Z,102139.42
2019-02-16T05:54:22.761Z,102132.78
2019-02-16T05:56:54.104Z,102131.93
2019-02-16T05:59:26.071Z,102135.87
2019-02-16T06:01:58.042Z,102137.14
2019-02-16T06:04:29.932Z,102143.23
2019-02-16T06:07:01.353Z,102131.84
2019-02-16T06:09:33.647Z,102128.28
2019-02-16T06:12:05.482Z,102125.72
2019-02-16T06:14:37.332Z,102118.98
2019-02-16T06:17:09.255Z,102132.27
2019-02-16T06:19:41.386Z,102126.95
2019-02-16T06:22:13.089Z,102130.06
2019-02-16T06:24:45.208Z,102123.83
2019-02-16T06:27:16.853Z,102122.86
2019-02-16T06:29:48.571Z,102116.22
2019-02-16T06:32:20.626Z,102117.53
2019-02-16T06:34:57.076Z,102123.42
2019-02-16T06:37:29.052Z,102125.30
2019-02-16T06:40:01.662Z,102125.72
2019-02-16T06:42:33.309Z,102129.62
2019-02-16T06:45:05.167Z,102138.01
2019-02-16T06:47:36.444Z,102143.73
2019-02-16T06:50:08.931Z,102151.82
2019-02-16T06:52:40.473Z,102162.89
2019-02-16T06:55:12.643Z,102162.56
2019-02-16T06:57:48.373Z,102159.03
2019-02-16T07:00:22.246Z,102158.17
2019-02-16T07:02:54.030Z,102137.30
2019-02-16T07:05:26.090Z,102139.94
2019-02-16T07:07:58.493Z,102144.80
2019-02-16T07:10:30.252Z,102149.75
2019-02-16T07:13:01.937Z,102138.18
2019-02-16T07:15:33.212Z,102137.79
2019-02-16T07:18:14.417Z,102140.84
2019-02-16T07:20:45.785Z,102143.38
2019-02-16T07:23:27.019Z,102137.30
2019-02-16T07:26:17.833Z,102128.22
2019-02-16T07:28:50.266Z,102140.12
2019-02-16T07:31:23.513Z,102137.92
2019-02-16T07:33:54.858Z,102134.27
2019-02-16T07:36:26.191Z,102133.82
2019-02-16T07:38:58.914Z,102129.48
2019-02-16T07:41:31.684Z,102128.73
2019-02-16T07:44:15.204Z,102120.09
2019-02-16T07:46:54.365Z,102118.30
2019-02-16T07:49:40.034Z,102115.97
2019-02-16T07:52:39.164Z,102110.55
2019-02-16T07:55:20.755Z,102117.95
2019-02-16T07:58:01.280Z,102110.70
2019-02-16T08:00:49.935Z,102108.88
2019-02-16T08:03:30.181Z,102103.86
2019-02-16T08:06:23.847Z,102103.92
2019-02-16T08:09:14.424Z,102090.36
2019-02-16T08:11:55.923Z,102091.94
2019-02-16T08:14:44.766Z,102105.94
2019-02-16T08:17:19.607Z,102113.86
2019-02-16T08:20:16.029Z,102124.36
2019-02-16T08:23:05.931Z,102130.63
2019-02-16T08:26:04.306Z,102133.34
2019-02-16T08:29:02.254Z,102132.12
2019-02-16T08:31:50.958Z,102136.25
2019-02-16T08:34:37.957Z,102157.98
2019-02-16T08:37:24.261Z,102144.50
2019-02-16T08:40:22.643Z,102146.16
2019-02-16T08:43:16.204Z,102158.34
2019-02-16T08:46:07.643Z,102152.10
2019-02-16T08:48:54.033Z,102143.35
2019-02-16T08:51:37.288Z,102152.53
2019-02-16T08:54:27.872Z,102144.88
2019-02-16T08:57:34.404Z,102140.27
2019-02-16T09:00:27.764Z,102137.84
2019-02-16T09:03:16.996Z,102127.28
2019-02-16T09:06:07.619Z,102127.64
2019-02-16T09:08:48.340Z,102126.45
2019-02-16T09:11:34.789Z,102131.96
2019-02-16T09:14:20.787Z,102118.45
2019-02-16T09:17:06.883Z,102125.44
2019-02-16T09:19:59.829Z,102125.47
2019-02-16T09:22:59.120Z,102121.37
2019-02-16T09:25:45.660Z,102126.15
2019-02-16T09:28:49.509Z,102121.98
2019-02-16T09:31:40.349Z,102113.36
2019-02-16T09:34:26.833Z,102112.22
2019-02-16T09:40:20.210Z,102105.42
2019-02-16T09:43:02.996Z,102108.75
2019-02-16T09:45:56.191Z,102108.06
2019-02-16T09:48:40.725Z,102106.91
2019-02-16T09:51:38.282Z,102103.73
2019-02-16T09:54:17.594Z,102109.64
2019-02-16T09:57:00.015Z,102098.44
2019-02-16T09:59:49.245Z,102091.79
2019-02-16T10:02:35.838Z,102095.23
2019-02-16T10:05:30.470Z,102092.45
2019-02-16T10:08:33.610Z,102090.34
2019-02-16T10:11:22.981Z,102099.78
2019-02-16T10:14:14.554Z,102088.33
2019-02-16T10:16:52.478Z,102100.41
2019-02-16T10:19:44.168Z,102101.74
2019-02-16T10:22:45.746Z,102110.12
2019-02-16T10:25:35.338Z,102114.24
2019-02-16T10:28:39.161Z,102121.80
2019-02-16T10:31:30.167Z,102119.61
2019-02-16T10:34:24.350Z,102118.36
2019-02-16T10:37:21.510Z,102117.02
2019-02-16T10:40:11.568Z,102117.75
2019-02-16T10:43:04.447Z,102116.62
2019-02-16T10:46:05.341Z,102112.85
2019-02-16T10:48:47.812Z,102118.02
2019-02-16T10:51:48.634Z,102110.83
2019-02-16T10:54:33.142Z,102108.05
2019-02-16T10:57:27.760Z,102093.52
2019-02-16T11:00:31.570Z,102083.70
2019-02-16T11:03:25.455Z,102084.00
2019-02-16T11:06:09.027Z,102087.35
2019-02-16T11:09:11.736Z,102085.58
2019-02-16T11:12:02.014Z,102065.85
2019-02-16T11:15:07.444Z,102076.72
2019-02-16T11:18:12.462Z,102081.02
2019-02-16T11:21:04.438Z,102077.39
2019-02-16T11:23:58.258Z,102075.98
2019-02-16T11:26:43.587Z,102073.36
2019-02-16T11:29:31.293Z,102082.95
2019-02-16T11:32:09.767Z,102077.43
2019-02-16T11:35:00.778Z,102072.12
2019-02-16T11:37:44.086Z,102076.33
2019-02-16T11:40:46.468Z,102073.63
2019-02-16T11:43:53.853Z,102078.08
2019-02-16T11:46:44.549Z,102074.48
2019-02-16T11:49:30.910Z,102070.08
2019-02-16T11:52:26.819Z,102066.07
2019-02-16T11:55:26.902Z,102066.22
2019-02-16T11:58:37.404Z,102064.23
2019-02-16T12:01:26.453Z,102062.03
2019-02-16T12:04:09.041Z,102067.19
2019-02-16T12:07:03.033Z,102052.20
2019-02-16T12:09:50.814Z,102050.23
2019-02-16T12:12:51.592Z,102060.00
2019-02-16T12:15:40.882Z,102056.77
2019-02-16T12:18:24.765Z,102053.76
2019-02-16T12:21:13.940Z,102042.09
2019-02-16T12:24:07.545Z,102039.52
2019-02-16T12:27:02.336Z,102037.75
2019-02-16T12:29:51.568Z,102045.20
2019-02-16T12:32:42.036Z,102034.42
2019-02-16T12:35:27.442Z,102037.97
2019-02-16T12:38:14.259Z,102029.31
2019-02-16T12:40:55.631Z,102028.78
2019-02-16T12:43:50.395Z,102028.59
2019-02-16T12:46:44.676Z,102024.83
2019-02-16T12:49:33.407Z,102017.20
2019-02-16T12:52:24.719Z,102008.59
2019-02-16T12:55:15.990Z,102006.45
2019-02-16T12:58:12.155Z,102011.77
2019-02-16T13:01:05.910Z,102020.37
2019-02-16T13:04:00.123Z,102026.92
2019-02-16T13:07:06.282Z,102037.67
2019-02-16T13:10:09.254Z,102033.27
2019-02-16T13:13:05.560Z,102030.42
2019-02-16T13:15:52.545Z,102007.33
2019-02-16T13:18:36.632Z,102009.96
2019-02-16T13:21:31.080Z,102017.95
2019-02-16T13:24:26.541Z,102021.55
2019-02-16T13:27:35.676Z,102023.56
2019-02-16T13:30:27.529Z,102028.21
2019-02-16T13:33:16.848Z,102031.63
2019-02-16T13:36:02.356Z,102007.95
2019-02-16T13:38:54.807Z,102028.77
2019-02-16T13:42:08.546Z,102027.59
2019-02-16T13:44:50.223Z,102018.08
2019-02-16T13:47:47.439Z,102016.28
2019-02-16T13:50:25.739Z,102021.73
2019-02-16T13:53:25.750Z,102024.91
2019-02-16T13:56:30.014Z,102017.71
2019-02-16T13:59:27.194Z,102022.27
2019-02-16T14:02:22.273Z,102026.25
2019-02-16T14:05:28.328Z,102025.45
2019-02-16T14:08:54.503Z,102035.96
2019-02-16T14:11:47.884Z,102030.09
2019-02-16T14:14:39.882Z,102032.96
2019-02-16T14:17:22.971Z,102038.81
2019-02-16T14:19:57.600Z,102027.53
2019-02-16T14:25:55.082Z,102033.52
2019-02-16T14:28:34.293Z,102032.05
2019-02-16T14:31:09.982Z,102040.56
2019-02-16T14:33:53.790Z,102038.54
2019-02-16T14:36:27.089Z,102041.84
2019-02-16T14:39:10.840Z,102031.64
2019-02-16T14:41:45.305Z,102029.14
2019-02-16T14:44:23.205Z,102030.72
2019-02-16T14:46:56.077Z,102029.93
2019-02-16T14:49:27.719Z,102036.09
2019-02-16T14:52:00.503Z,102031.44
2019-02-16T14:54:32.728Z,102031.83
2019-02-16T14:57:08.825Z,102031.16
2019-02-16T14:59:41.996Z,102031.27
2019-02-16T15:02:21.774Z,102029.87
2019-02-16T15:05:25.801Z,102038.84
2019-02-16T15:12:10.293Z,102039.83
2019-02-16T15:18:25.209Z,102036.16
2019-02-16T15:30:59.710Z,102045.59
2019-02-16T15:56:10.485Z,102061.61
2019-02-16T16:05:39.249Z,102064.45
2019-02-16T16:25:50.378Z,102068.71
2019-02-16T16:35:10.404Z,102079.35
2019-02-16T16:38:39.166Z,102079.84
2019-02-16T16:41:34.972Z,102095.92
2019-02-16T16:45:28.071Z,102083.80
2019-02-16T16:52:24.287Z,102093.09
2019-02-16T16:55:41.159Z,102099.59
2019-02-16T16:59:15.060Z,102103.58
2019-02-16T17:05:45.531Z,102112.30
2019-02-16T17:52:06.953Z,102147.86
2019-02-16T18:27:16.530Z,102182.27
2019-02-16T19:05:30.059Z,102196.69
2019-02-16T19:11:52.667Z,102231.73
2019-02-16T19:22:46.250Z,102281.41
2019-02-16T20:20:06.118Z,102515.13
2019-02-16T20:41:17.859Z,102546.00
2019-02-16T20:48:46.009Z,102545.13
2019-02-16T20:54:56.424Z,102571.87
2019-02-16T21:07:59.622Z,102744.11
2019-02-16T21:11:34.801Z,102746.70
2019-02-16T21:30:08.776Z,102701.45
2019-02-16T21:37:17.807Z,102691.13
2019-02-16T22:25:12.896Z,102542.33
2019-02-16T22:28:47.617Z,102541.58
2019-02-16T22:42:08.033Z,102544.77
2019-02-16T22:53:31.445Z,102548.19
2019-02-16T22:56:48.867Z,102538.37
